UAL360 KBOS-KLAX
Flight info
| Callsign | UAL360 |
|---|---|
| Flight time | N/A |
| Altitude | 34000 |
| Route | HYLND7 HYLND HANAA Q816 HOCKE GRB ODI/N0456F360 FSD J114 DVV J60 HVE PROMT Q88 HAKMN ANJLL4 |
| Aircraft | B38M/M-SDE1FGHILORVWXY/HB1 |
Departure
| Time | N/A |
|---|---|
| Airport | Boston Logan International Airport (KBOS) |
Arrival
| Time | 2026-04-22 02:56 |
|---|---|
| Airport | Los Angeles International Airport (KLAX) |
| Time | Latitude | Longitude | Altitude | Speed | Heading |
|---|---|---|---|---|---|
| 2026-04-22 02:26 | 35.06189 | -115.65809 | 35983 ft | 370 kts | 229° |
| 2026-04-22 02:26 | 35.04038 | -115.68569 | 35954 ft | 368 kts | 229° |
| 2026-04-22 02:27 | 34.98240 | -115.75968 | 35948 ft | 367 kts | 228° |
| 2026-04-22 02:27 | 34.91146 | -115.84975 | 35934 ft | 367 kts | 229° |
| 2026-04-22 02:28 | 34.84122 | -115.93936 | 35927 ft | 367 kts | 229° |
| 2026-04-22 02:28 | 34.78045 | -116.01614 | 35914 ft | 366 kts | 229° |
| 2026-04-22 02:29 | 34.71906 | -116.09437 | 35918 ft | 366 kts | 229° |
| 2026-04-22 02:29 | 34.66969 | -116.15720 | 35921 ft | 366 kts | 229° |
| 2026-04-22 02:30 | 34.63453 | -116.20185 | 35932 ft | 365 kts | 229° |
| 2026-04-22 02:30 | 34.59954 | -116.24624 | 35923 ft | 366 kts | 229° |
| 2026-04-22 02:31 | 34.56437 | -116.29079 | 35929 ft | 368 kts | 229° |
| 2026-04-22 02:31 | 34.52888 | -116.33571 | 35951 ft | 368 kts | 229° |
| 2026-04-22 02:32 | 34.49329 | -116.38066 | 35930 ft | 368 kts | 229° |
| 2026-04-22 02:32 | 34.45798 | -116.42521 | 35744 ft | 364 kts | 229° |
| 2026-04-22 02:32 | 34.44040 | -116.44738 | 35163 ft | 362 kts | 229° |
| 2026-04-22 02:33 | 34.42315 | -116.46957 | 34615 ft | 363 kts | 232° |
| 2026-04-22 02:33 | 34.41005 | -116.49584 | 33960 ft | 368 kts | 243° |
| 2026-04-22 02:33 | 34.39836 | -116.52361 | 33302 ft | 372 kts | 242° |
| 2026-04-22 02:33 | 34.38666 | -116.55124 | 32680 ft | 375 kts | 242° |
| 2026-04-22 02:34 | 34.37485 | -116.57945 | 32044 ft | 377 kts | 243° |
| 2026-04-22 02:34 | 34.36302 | -116.60796 | 31446 ft | 378 kts | 243° |
| 2026-04-22 02:34 | 34.35125 | -116.63642 | 30856 ft | 376 kts | 243° |
| 2026-04-22 02:34 | 34.33957 | -116.66470 | 30221 ft | 375 kts | 243° |
| 2026-04-22 02:35 | 34.32811 | -116.69316 | 29494 ft | 376 kts | 244° |
| 2026-04-22 02:35 | 34.31672 | -116.72152 | 28987 ft | 372 kts | 244° |
| 2026-04-22 02:35 | 34.30563 | -116.74908 | 28558 ft | 367 kts | 244° |
| 2026-04-22 02:35 | 34.29447 | -116.77680 | 28010 ft | 364 kts | 244° |
| 2026-04-22 02:36 | 34.28343 | -116.80419 | 27474 ft | 361 kts | 244° |
| 2026-04-22 02:36 | 34.27245 | -116.83141 | 26952 ft | 358 kts | 244° |
| 2026-04-22 02:36 | 34.26153 | -116.85844 | 26419 ft | 356 kts | 244° |
| 2026-04-22 02:36 | 34.25082 | -116.88495 | 25911 ft | 355 kts | 245° |
| 2026-04-22 02:37 | 34.23993 | -116.91187 | 25300 ft | 356 kts | 245° |
| 2026-04-22 02:37 | 34.22905 | -116.93873 | 24758 ft | 355 kts | 245° |
| 2026-04-22 02:37 | 34.21817 | -116.96559 | 24225 ft | 354 kts | 245° |
| 2026-04-22 02:37 | 34.20858 | -116.99291 | 23683 ft | 353 kts | 253° |
| 2026-04-22 02:38 | 34.20131 | -117.02137 | 23024 ft | 355 kts | 252° |
| 2026-04-22 02:38 | 34.19380 | -117.04930 | 22485 ft | 352 kts | 252° |
| 2026-04-22 02:38 | 34.18609 | -117.07740 | 21967 ft | 350 kts | 251° |
| 2026-04-22 02:38 | 34.17838 | -117.10519 | 21445 ft | 348 kts | 251° |
| 2026-04-22 02:39 | 34.17065 | -117.13284 | 20941 ft | 347 kts | 251° |
| 2026-04-22 02:39 | 34.16301 | -117.16052 | 20349 ft | 346 kts | 251° |
| 2026-04-22 02:39 | 34.15547 | -117.18812 | 19897 ft | 344 kts | 251° |
| 2026-04-22 02:39 | 34.14796 | -117.21546 | 19397 ft | 341 kts | 251° |
| 2026-04-22 02:40 | 34.14052 | -117.24251 | 18891 ft | 338 kts | 251° |
| 2026-04-22 02:40 | 34.13329 | -117.26876 | 18399 ft | 329 kts | 251° |
| 2026-04-22 02:40 | 34.12616 | -117.29464 | 17857 ft | 320 kts | 251° |
| 2026-04-22 02:40 | 34.11926 | -117.31967 | 17368 ft | 308 kts | 251° |
| 2026-04-22 02:41 | 34.11261 | -117.34377 | 16908 ft | 297 kts | 251° |
| 2026-04-22 02:41 | 34.10623 | -117.36714 | 16456 ft | 287 kts | 252° |
| 2026-04-22 02:41 | 34.10057 | -117.38978 | 15950 ft | 281 kts | 252° |
| 2026-04-22 02:41 | 34.09499 | -117.41202 | 15535 ft | 272 kts | 252° |
| 2026-04-22 02:42 | 34.08956 | -117.43358 | 15142 ft | 266 kts | 251° |
| 2026-04-22 02:42 | 34.08421 | -117.45478 | 14749 ft | 269 kts | 251° |
| 2026-04-22 02:42 | 34.07875 | -117.47642 | 14360 ft | 270 kts | 251° |
| 2026-04-22 02:42 | 34.07307 | -117.49809 | 13961 ft | 271 kts | 248° |
| 2026-04-22 02:43 | 34.06550 | -117.51896 | 13530 ft | 271 kts | 246° |
| 2026-04-22 02:43 | 34.05953 | -117.54049 | 13152 ft | 271 kts | 257° |
| 2026-04-22 02:43 | 34.05715 | -117.56306 | 12847 ft | 269 kts | 261° |
| 2026-04-22 02:43 | 34.05530 | -117.58555 | 12537 ft | 268 kts | 261° |
| 2026-04-22 02:44 | 34.05351 | -117.60761 | 12237 ft | 267 kts | 261° |
| 2026-04-22 02:44 | 34.05172 | -117.62992 | 11939 ft | 266 kts | 261° |
| 2026-04-22 02:44 | 34.04923 | -117.65183 | 11621 ft | 262 kts | 251° |
| 2026-04-22 02:44 | 34.04067 | -117.67091 | 11318 ft | 259 kts | 231° |
| 2026-04-22 02:45 | 34.02748 | -117.68535 | 11068 ft | 260 kts | 217° |
| 2026-04-22 02:45 | 34.01231 | -117.69713 | 10986 ft | 256 kts | 224° |
| 2026-04-22 02:45 | 34.00304 | -117.71459 | 10568 ft | 249 kts | 255° |
| 2026-04-22 02:45 | 34.00145 | -117.73535 | 10085 ft | 248 kts | 261° |
| 2026-04-22 02:46 | 33.99961 | -117.75594 | 9581 ft | 245 kts | 260° |
| 2026-04-22 02:46 | 33.99773 | -117.77609 | 9242 ft | 236 kts | 260° |
| 2026-04-22 02:46 | 33.99591 | -117.79512 | 8968 ft | 226 kts | 260° |
| 2026-04-22 02:46 | 33.99412 | -117.81355 | 8708 ft | 216 kts | 260° |
| 2026-04-22 02:47 | 33.99240 | -117.83132 | 8351 ft | 212 kts | 260° |
| 2026-04-22 02:47 | 33.99069 | -117.84897 | 7889 ft | 212 kts | 260° |
| 2026-04-22 02:47 | 33.98899 | -117.86640 | 7730 ft | 210 kts | 261° |
| 2026-04-22 02:47 | 33.98727 | -117.88409 | 7400 ft | 213 kts | 261° |
| 2026-04-22 02:48 | 33.98574 | -117.90193 | 7022 ft | 215 kts | 262° |
| 2026-04-22 02:48 | 33.98434 | -117.91963 | 6670 ft | 215 kts | 262° |
| 2026-04-22 02:48 | 33.98274 | -117.93762 | 6354 ft | 215 kts | 261° |
| 2026-04-22 02:48 | 33.98104 | -117.95548 | 6059 ft | 214 kts | 261° |
| 2026-04-22 02:49 | 33.97938 | -117.97254 | 5821 ft | 214 kts | 261° |
| 2026-04-22 02:49 | 33.97914 | -117.97496 | 5786 ft | 214 kts | 262° |
| 2026-04-22 02:49 | 33.97738 | -117.99278 | 5508 ft | 214 kts | 262° |
| 2026-04-22 02:49 | 33.97499 | -118.01637 | 5351 ft | 214 kts | 262° |
| 2026-04-22 02:50 | 33.97316 | -118.03420 | 5250 ft | 215 kts | 262° |
| 2026-04-22 02:50 | 33.97196 | -118.04602 | 5186 ft | 214 kts | 262° |
| 2026-04-22 02:50 | 33.97013 | -118.06381 | 5061 ft | 213 kts | 262° |
| 2026-04-22 02:50 | 33.96832 | -118.08147 | 4910 ft | 212 kts | 262° |
| 2026-04-22 02:51 | 33.96652 | -118.09910 | 4637 ft | 212 kts | 263° |
| 2026-04-22 02:51 | 33.96470 | -118.11677 | 4374 ft | 211 kts | 263° |
| 2026-04-22 02:51 | 33.96290 | -118.13433 | 4113 ft | 212 kts | 263° |
| 2026-04-22 02:51 | 33.96110 | -118.15179 | 3845 ft | 213 kts | 263° |
| 2026-04-22 02:52 | 33.95928 | -118.16955 | 3564 ft | 213 kts | 263° |
| 2026-04-22 02:52 | 33.95747 | -118.18728 | 3301 ft | 213 kts | 264° |
| 2026-04-22 02:52 | 33.95566 | -118.20485 | 3078 ft | 204 kts | 264° |
| 2026-04-22 02:52 | 33.95399 | -118.22105 | 2812 ft | 188 kts | 263° |
| 2026-04-22 02:53 | 33.95241 | -118.23641 | 2550 ft | 181 kts | 264° |
| 2026-04-22 02:53 | 33.95091 | -118.25105 | 2310 ft | 171 kts | 264° |
| 2026-04-22 02:53 | 33.94954 | -118.26441 | 2107 ft | 150 kts | 263° |
| 2026-04-22 02:53 | 33.94833 | -118.27624 | 1884 ft | 134 kts | 264° |
| 2026-04-22 02:54 | 33.94719 | -118.28730 | 1690 ft | 134 kts | 263° |
| 2026-04-22 02:54 | 33.94604 | -118.29850 | 1508 ft | 136 kts | 262° |
| 2026-04-22 02:54 | 33.94487 | -118.31001 | 1334 ft | 140 kts | 264° |
| 2026-04-22 02:54 | 33.94375 | -118.32168 | 1117 ft | 140 kts | 263° |
| 2026-04-22 02:55 | 33.94243 | -118.33317 | 922 ft | 138 kts | 263° |
| 2026-04-22 02:55 | 33.94127 | -118.34456 | 742 ft | 137 kts | 264° |
| 2026-04-22 02:55 | 33.94006 | -118.35612 | 599 ft | 141 kts | 263° |
| 2026-04-22 02:55 | 33.93887 | -118.36791 | 383 ft | 142 kts | 264° |
| 2026-04-22 02:56 | 33.93769 | -118.37968 | 196 ft | 141 kts | 263° |
| 2026-04-22 02:56 | 33.93654 | -118.39091 | 98 ft | 124 kts | 262° |
| 2026-04-22 02:56 | 33.93567 | -118.39933 | 98 ft | 71 kts | 263° |
| 2026-04-22 02:56 | 33.93533 | -118.40385 | 98 ft | 45 kts | 277° |
| 2026-04-22 02:57 | 33.93590 | -118.40634 | 97 ft | 24 kts | 285° |
| 2026-04-22 02:57 | 33.93588 | -118.40809 | 96 ft | 13 kts | 263° |
| 2026-04-22 02:57 | 33.93592 | -118.40851 | 96 ft | 0 kts | 302° |
| 2026-04-22 02:57 | 33.93592 | -118.40852 | 96 ft | 1 kts | 302° |
| 2026-04-22 02:58 | 33.93596 | -118.40859 | 98 ft | 2 kts | 304° |
| 2026-04-22 02:58 | 33.93650 | -118.40893 | 99 ft | 19 kts | 351° |
| 2026-04-22 02:58 | 33.93799 | -118.40917 | 96 ft | 20 kts | 352° |
| 2026-04-22 02:58 | 33.93871 | -118.40881 | 97 ft | 12 kts | 77° |